Flight Track Log - Related Links

Times and Time Zones

All times are in EDT time to prevent confusion due to time zone crossing. See the JBU834 flight status page for this flight to view local times or setup timezone preferences in your user account.

Time Position Orientation Groundspeed Altitude Reporting Facility
EDT Latitude Longitude Course Direction KTS MPH feet Rate Location/Type
Tue 03:09:34 AM 37.6333 -122.3667 10° North 154 177 1,200  Level Northern Cal TRACON
Tue 03:11:42 AM 37.7469 -122.3425 10° North 249 287 4,200 1,915 Climbing Oakland Center
Tue 03:12:42 AM 37.8181 -122.3683 344° North 263 303 7,200 2,926 Climbing Oakland Center
Tue 03:13:43 AM 37.9039 -122.3206 24° Northeast 322 371 10,100 2,083 Climbing Oakland Center
Tue 03:14:43 AM 37.9683 -122.2267 49° Northeast 353 406 11,400 1,600 Climbing Oakland Center
Tue 03:15:43 AM 38.0444 -122.1194 48° Northeast 408 470 13,300 2,850 Climbing Oakland Center
Tue 03:16:43 AM 38.1197 -122.0133 48° Northeast 411 473 17,100 2,727 Climbing Oakland Center
Tue 03:17:44 AM 38.1972 -121.9036 48° Northeast 416 479 18,800 1,488 Climbing Oakland Center
Tue 03:18:44 AM 38.2792 -121.7864 48° Northeast 443 510 20,100 1,150 Climbing Oakland Center
Tue 03:19:44 AM 38.3658 -121.6619 48° Northeast 465 535 21,100 1,050 Climbing Oakland Center
Tue 03:20:44 AM 38.4583 -121.5278 49° Northeast 493 567 22,200 1,140 Climbing Oakland Center
Tue 03:21:45 AM 38.5386 -121.3850 54° Northeast 499 574 23,400 1,388 Climbing Oakland Center
Tue 03:22:45 AM 38.6258 -121.2403 52° Northeast 509 586 25,000 1,400 Climbing Oakland Center
Tue 03:23:45 AM 38.6992 -121.1117 54° Northeast 507 583 26,200 1,000 Climbing Oakland Center
Tue 03:24:45 AM 38.7847 -120.9639 53° Northeast 509 586 27,000 650 Climbing Oakland Center
Tue 03:25:45 AM 38.8733 -120.8103 53° Northeast 528 608 27,500 843 Climbing Oakland Center
Tue 03:26:46 AM 38.9639 -120.6511 54° Northeast 546 628 28,700 1,190 Climbing Oakland Center
Tue 03:27:46 AM 39.0547 -120.4936 53° Northeast 547 629 29,900 1,100 Climbing Oakland Center
Tue 03:28:46 AM 39.1447 -120.3356 54° Northeast 547 629 30,900 700 Climbing Oakland Center
Tue 03:29:46 AM 39.2375 -120.1753 53° Northeast 555 639 31,300 850 Climbing Oakland Center
Tue 03:30:46 AM 39.3347 -120.0036 54° Northeast 563 648 32,600 893 Climbing Oakland Center
Tue 03:31:47 AM 39.4250 -119.8447 54° Northeast 553 636 33,100 248 Climbing Oakland Center
Tue 03:32:47 AM 39.5133 -119.6886 54° Northeast 542 624 33,100 250 Level Oakland Center
Tue 03:33:47 AM 39.6022 -119.5294 54° Northeast 547 629 33,600 750 Climbing Oakland Center
Tue 03:34:47 AM 39.6911 -119.3667 55° Northeast 549 632 34,600 700 Climbing Oakland Center
Tue 03:35:47 AM 39.7822 -119.2044 54° Northeast 552 635 35,000 198 Climbing Oakland Center
Tue 03:36:48 AM 39.8697 -119.0436 55° Northeast 546 628 35,000  Level Oakland Center
Tue 03:37:48 AM 39.9581 -118.8831 54° Northeast 545 627 35,000  Level Oakland Center
Tue 03:38:48 AM 40.0472 -118.7214 54° Northeast 544 626 35,000  Level Oakland Center
Tue 03:39:48 AM 40.1256 -118.5536 59° Northeast 543 625 35,000  Level Oakland Center
Tue 03:40:48 AM 40.1794 -118.3750 68° East 530 610 35,000  Level Oakland Center
Tue 03:41:49 AM 40.2297 -118.1942 70° East 529 609 35,000  Level Oakland Center
Tue 03:42:49 AM 40.2822 -118.0019 70° East 529 609 35,000  Level Oakland Center
Tue 03:43:49 AM 40.3289 -117.8289 70° East 529 609 35,000  Level Oakland Center
Tue 03:44:49 AM 40.3756 -117.6556 70° East 526 605 35,000  Level Oakland Center
Tue 03:45:50 AM 40.4303 -117.4536 70° East 527 606 35,000  Level Oakland Center
Tue 03:46:50 AM 40.4758 -117.2806 71° East 525 604 35,000  Level Oakland Center
Tue 03:47:50 AM 40.5214 -117.1081 71° East 520 598 35,000  Level Oakland Center
Tue 03:48:50 AM 40.5678 -116.9347 71° East 516 594 35,000  Level Oakland Center
Tue 03:49:50 AM 40.6278 -116.7678 65° Northeast 519 597 35,000  Level Oakland Center
Tue 03:51:18 AM 40.7264 -116.5200 62° Northeast 524 603 35,000  Level Salt Lake Center
Tue 03:52:18 AM 40.8011 -116.3264 63° Northeast 527 606 35,000  Level Salt Lake Center
Tue 03:57:19 AM 41.1314 -115.4633 64° Northeast 532 612 35,000  Level Salt Lake Center
Tue 03:58:20 AM 41.1936 -115.2944 64° Northeast 532 612 35,000  Level Salt Lake Center
Tue 03:59:20 AM 41.2658 -115.0986 64° Northeast 531 611 35,000  Level Salt Lake Center
Tue 04:00:20 AM 41.3278 -114.9300 64° Northeast 531 611 35,000  Level Salt Lake Center
Tue 04:01:00 AM 41.3287 -114.9117 63° Northeast  Level FlightAware Approximate
Tue 04:01:21 AM 41.3889 -114.7608 64° Northeast 530 610 35,000  Level Salt Lake Center
Tue 04:02:00 AM 41.3882 -114.7476 64° Northeast  Level FlightAware Approximate
Tue 04:02:21 AM 41.4539 -114.5844 64° Northeast 530 610 35,000  Level Salt Lake Center
Tue 04:03:21 AM 41.5172 -114.4081 64° Northeast 529 609 35,000  Level Salt Lake Center
Tue 04:04:21 AM 41.5814 -114.2325 64° Northeast 529 609 35,000  Level Salt Lake Center
Tue 04:05:22 AM 41.6444 -114.0553 64° Northeast 529 609 35,000  Level Salt Lake Center
Tue 04:06:22 AM 41.7089 -113.8783 64° Northeast 529 609 35,000  Level Salt Lake Center
Tue 04:07:22 AM 41.7711 -113.6992 65° Northeast 529 609 35,000  Level Salt Lake Center
Tue 04:08:22 AM 41.8339 -113.5200 65° Northeast 529 609 35,000  Level Salt Lake Center
Tue 04:09:22 AM 41.8981 -113.3394 64° Northeast 531 611 35,000  Level Salt Lake Center
Tue 04:10:23 AM 41.9589 -113.1603 65° Northeast 531 611 35,000  Level Salt Lake Center
Tue 04:11:23 AM 42.0208 -112.9803 65° Northeast 531 611 35,000  Level Salt Lake Center
Tue 04:12:23 AM 42.0833 -112.8006 65° Northeast 531 611 35,000  Level Salt Lake Center
Tue 04:15:23 AM 42.2647 -112.2542 69° East 531 611 35,000  Level Salt Lake Center
Tue 04:16:24 AM 42.3250 -112.0706 66° East 533 613 35,000  Level Salt Lake Center
Tue 04:17:24 AM 42.3847 -111.8867 66° East 533 613 35,000  Level Salt Lake Center
Tue 04:18:24 AM 42.4431 -111.7014 67° East 533 613 35,000  Level Salt Lake Center
Tue 04:19:24 AM 42.5025 -111.5161 66° East 534 615 35,000  Level Salt Lake Center
Tue 04:20:24 AM 42.5611 -111.3325 67° East 533 613 35,000  Level Salt Lake Center
Tue 04:21:24 AM 42.6186 -111.1497 67° East 532 612 35,000  Level Salt Lake Center
Tue 04:22:25 AM 42.6761 -110.9656 67° East 531 611 35,000  Level Salt Lake Center
Tue 04:23:25 AM 42.7356 -110.7731 67° East 531 611 35,000  Level Salt Lake Center
Tue 04:24:25 AM 42.7900 -110.5950 67° East 531 611 35,000  Level Salt Lake Center
Tue 04:25:25 AM 42.8539 -110.3869 67° East 532 612 35,000  Level Salt Lake Center
Tue 04:26:25 AM 42.9081 -110.2117 67° East 530 610 35,000  Level Salt Lake Center
Tue 04:27:25 AM 42.9617 -110.0331 68° East 529 609 35,000  Level Salt Lake Center
Tue 04:28:25 AM 43.0208 -109.8317 68° East 530 610 35,000  Level Salt Lake Center
Tue 04:29:26 AM 43.0761 -109.6472 68° East 529 609 35,000  Level Salt Lake Center
Tue 04:30:26 AM 43.1311 -109.4575 68° East 533 613 35,000  Level Salt Lake Center
Tue 04:31:26 AM 43.1836 -109.2772 68° East 520 598 35,000  Level Salt Lake Center
Tue 04:32:26 AM 43.2383 -109.0939 68° East 518 596 35,000  Level Salt Lake Center
Tue 04:33:26 AM 43.2906 -108.9083 69° East 525 604 35,000  Level Salt Lake Center
Tue 04:34:26 AM 43.3439 -108.7228 68° East 524 603 35,000  Level Salt Lake Center
Tue 04:35:26 AM 43.3964 -108.5378 69° East 523 602 35,000  Level Salt Lake Center
Tue 04:36:27 AM 43.4483 -108.3544 69° East 521 600 35,000  Level Salt Lake Center
Tue 04:37:27 AM 43.5008 -108.1719 68° East 518 596 35,000  Level Salt Lake Center
Tue 04:38:27 AM 43.5558 -107.9894 67° East 518 596 35,000  Level Salt Lake Center
Tue 04:39:27 AM 43.6089 -107.8053 68° East 518 596 35,000  Level Salt Lake Center
Tue 04:40:27 AM 43.6631 -107.6214 68° East 519 597 35,000  Level Salt Lake Center
Tue 04:41:27 AM 43.7167 -107.4361 68° East 520 598 35,000  Level Salt Lake Center
Tue 04:42:27 AM 43.7678 -107.2531 69° East 519 597 35,000  Level Salt Lake Center
Tue 04:43:28 AM 43.8206 -107.0669 68° East 519 597 35,000  Level Salt Lake Center
Tue 04:44:28 AM 43.8736 -106.8881 68° East 519 597 35,000  Level Salt Lake Center
Tue 04:45:28 AM 43.9306 -106.6792 69° East 519 597 35,000  Level Salt Lake Center
Tue 04:46:28 AM 43.9753 -106.5064 70° East 523 602 35,000  Level Salt Lake Center
Tue 04:47:28 AM 44.0006 -106.3086 80° East 525 604 35,000  Level Salt Lake Center
Tue 04:48:28 AM 44.0031 -106.1094 89° East 525 604 35,000  Level Salt Lake Center
Tue 04:49:28 AM 44.0050 -105.8825 89° East 525 604 35,000  Level Salt Lake Center
Tue 04:50:28 AM 44.0050 -105.6881 90° East 525 604 35,000  Level Salt Lake Center
Tue 04:51:28 AM 44.0053 -105.4944 90° East 525 604 35,000  Level Salt Lake Center
Tue 04:52:29 AM 44.0058 -105.2994 90° East 525 604 35,000  Level Salt Lake Center
Tue 04:53:29 AM 44.0050 -105.0728 90° East 525 604 35,000  Level Salt Lake Center
Tue 04:54:29 AM 44.0036 -104.8775 90° East 525 604 35,000  Level Salt Lake Center
Tue 04:55:29 AM 44.0011 -104.6847 91° East 525 604 35,000  Level Salt Lake Center
Tue 04:56:29 AM 43.9997 -104.4931 91° East 523 602 35,000  Level Salt Lake Center
Tue 04:57:29 AM 43.9981 -104.2642 91° East 525 604 35,000  Level Salt Lake Center
Tue 04:58:29 AM 43.9956 -104.0694 91° East 525 604 35,000  Level Salt Lake Center
Tue 04:59:56 AM 43.9903 -103.7806 91° East 525 604 35,000  Level Denver Center
Tue 05:00:56 AM 43.9881 -103.5875 91° East 524 603 35,000  Level Denver Center
Tue 05:01:56 AM 43.9842 -103.3944 92° East 524 603 35,000  Level Denver Center
Tue 05:02:57 AM 43.9806 -103.1692 91° East 523 602 35,000  Level Denver Center
Tue 05:03:57 AM 43.9767 -102.9764 92° East 523 602 35,000  Level Denver Center
Tue 05:04:57 AM 43.9700 -102.7844 93° East 524 603 35,000  Level Denver Center
Tue 05:05:57 AM 43.9650 -102.5858 92° East 523 602 35,000  Level Denver Center
Tue 05:06:57 AM 43.9583 -102.3850 93° East 523 602 35,000  Level Denver Center
Tue 05:07:58 AM 43.9508 -102.1847 93° East 523 602 35,000  Level Denver Center
Tue 05:08:58 AM 43.9439 -101.9842 93° East 523 602 35,000  Level Denver Center
Tue 05:09:58 AM 43.9372 -101.7861 93° East 523 602 35,000  Level Denver Center
Tue 05:10:58 AM 43.9311 -101.5889 92° East 520 598 35,000  Level Denver Center
Tue 05:11:59 AM 43.9228 -101.3878 93° East 520 598 35,000  Level Denver Center
Tue 05:12:46 AM 43.9178 -101.2297 92° East 521 600 35,000  Level Minneapolis Center
Tue 05:13:47 AM 43.9092 -101.0314 93° East 521 600 35,000  Level Minneapolis Center
Tue 05:14:47 AM 43.9008 -100.8292 93° East 522 601 35,000  Level Minneapolis Center
Tue 05:15:48 AM 43.8892 -100.5861 94° East 526 605 35,000  Level Minneapolis Center
Tue 05:16:48 AM 43.8800 -100.3856 94° East 526 605 35,000  Level Minneapolis Center
Tue 05:17:48 AM 43.8706 -100.1864 94° East 526 605 35,000  Level Minneapolis Center
Tue 05:18:49 AM 43.8600 -99.9872 94° East 526 605 35,000  Level Minneapolis Center
Tue 05:19:49 AM 43.8503 -99.7908 94° East 521 600 35,000  Level Minneapolis Center
Tue 05:20:50 AM 43.8392 -99.5908 94° East 521 600 35,000  Level Minneapolis Center
Tue 05:21:50 AM 43.8281 -99.3928 94° East 521 600 35,000  Level Minneapolis Center
Tue 05:22:50 AM 43.8169 -99.1931 94° East 521 600 35,000  Level Minneapolis Center
Tue 05:23:51 AM 43.8044 -98.9950 95° East 521 600 35,000  Level Minneapolis Center
Tue 05:24:51 AM 43.7928 -98.7950 95° East 521 600 35,000  Level Minneapolis Center
Tue 05:25:51 AM 43.7797 -98.5819 95° East 522 601 35,000  Level Minneapolis Center
Tue 05:26:52 AM 43.7664 -98.3825 95° East 523 602 35,000  Level Minneapolis Center
Tue 05:27:52 AM 43.7528 -98.1853 95° East 521 600 35,000  Level Minneapolis Center
Tue 05:28:52 AM 43.7394 -97.9861 95° East 521 600 35,000  Level Minneapolis Center
Tue 05:29:53 AM 43.7256 -97.7867 95° East 521 600 35,000  Level Minneapolis Center
Tue 05:30:53 AM 43.7114 -97.5889 96° East 521 600 35,000  Level Minneapolis Center
Tue 05:31:53 AM 43.6972 -97.3911 96° East 521 600 35,000  Level Minneapolis Center
Tue 05:32:54 AM 43.6828 -97.1931 96° East 521 600 35,000  Level Minneapolis Center
Tue 05:33:54 AM 43.6661 -96.9950 97° East 521 600 35,000  Level Minneapolis Center
Tue 05:34:54 AM 43.6517 -96.7989 96° East 521 600 35,000  Level Minneapolis Center
Tue 05:35:55 AM 43.6236 -96.6025 101° East 522 601 35,000  Level Minneapolis Center
Tue 05:36:55 AM 43.5953 -96.4067 101° East 525 604 35,000  Level Minneapolis Center
Tue 05:37:55 AM 43.5667 -96.2139 102° East 525 604 35,000  Level Minneapolis Center
Tue 05:38:56 AM 43.5381 -96.0217 102° East 519 597 35,000  Level Minneapolis Center
Tue 05:39:56 AM 43.5089 -95.8311 102° East 517 595 35,000  Level Minneapolis Center
Tue 05:40:56 AM 43.4794 -95.6439 102° East 506 582 35,000  Level Minneapolis Center
Tue 05:41:57 AM 43.4500 -95.4542 102° East 509 586 35,000  Level Minneapolis Center
Tue 05:42:57 AM 43.4203 -95.2628 102° East 510 587 35,000  Level Minneapolis Center
Tue 05:43:57 AM 43.3897 -95.0728 102° East 510 587 35,000  Level Minneapolis Center
Tue 05:44:57 AM 43.3525 -94.8456 103° East 511 588 35,000  Level Minneapolis Center
Tue 05:45:58 AM 43.3208 -94.6550 103° East 512 589 35,000  Level Minneapolis Center
Tue 05:46:58 AM 43.2903 -94.4647 102° East 512 589 35,000  Level Minneapolis Center
Tue 05:47:58 AM 43.2572 -94.2739 103° East 512 589 35,000  Level Minneapolis Center
Tue 05:48:59 AM 43.2244 -94.0828 103° East 513 590 35,000  Level Minneapolis Center
Tue 05:49:59 AM 43.1925 -93.8925 103° East 513 590 35,000  Level Minneapolis Center
Tue 05:50:59 AM 43.1597 -93.7053 103° East 513 590 35,000  Level Minneapolis Center
Tue 05:51:59 AM 43.1281 -93.5181 103° East 512 589 35,000  Level Minneapolis Center
Tue 05:53:00 AM 43.0978 -93.3306 102° East 512 589 35,000  Level Minneapolis Center
Tue 05:54:00 AM 43.0992 -93.1439 89° East 497 572 35,000  Level Minneapolis Center
Tue 05:55:00 AM 43.1042 -92.9589 88° East 492 566 35,000  Level Minneapolis Center
Tue 05:56:00 AM 43.1078 -92.7742 88° East 492 566 35,000  Level Minneapolis Center
Tue 05:57:01 AM 43.1108 -92.5889 89° East 491 565 35,000  Level Minneapolis Center
Tue 05:58:01 AM 43.1150 -92.4036 88° East 491 565 35,000  Level Minneapolis Center
Tue 05:59:01 AM 43.1178 -92.2186 89° East 489 563 35,000  Level Minneapolis Center
Tue 06:00:02 AM 43.1219 -92.0325 88° East 489 563 35,000  Level Minneapolis Center
Tue 06:01:02 AM 43.1242 -91.8453 89° East 489 563 35,000  Level Minneapolis Center
Tue 06:02:02 AM 43.1269 -91.6575 89° East 489 563 35,000  Level Minneapolis Center
Tue 06:03:02 AM 43.1297 -91.4681 89° East 489 563 35,000  Level Minneapolis Center
Tue 06:04:03 AM 43.1308 -91.2783 89° East 492 566 35,000  Level Minneapolis Center
Tue 06:05:03 AM 43.1317 -91.0878 90° East 496 571 35,000  Level Minneapolis Center
Tue 06:06:03 AM 43.1325 -90.8964 90° East 499 574 35,000  Level Minneapolis Center
Tue 06:06:33 AM 43.1356 -90.8219 87° East 506 582 35,000  Level Chicago Center
Tue 06:07:33 AM 43.1356 -90.6308 90° East 504 580 35,000  Level Chicago Center
Tue 06:08:34 AM 43.1350 -90.4425 90° East 500 575 35,000  Level Chicago Center
Tue 06:09:34 AM 43.1342 -90.2386 90° East 500 575 35,000  Level Chicago Center
Tue 06:10:35 AM 43.1333 -90.0528 90° East 497 572 35,000  Level Chicago Center
Tue 06:11:35 AM 43.1328 -89.8656 90° East 490 564 35,000 -50 Level Chicago Center
Tue 06:12:36 AM 43.1331 -89.6747 90° East 498 573 34,900  Descending Chicago Center
Tue 06:13:36 AM 43.1319 -89.4842 90° East 502 578 35,000 50 Climbing Chicago Center
Tue 06:14:37 AM 43.1297 -89.2561 91° East 501 577 35,000  Level Chicago Center
Tue 06:15:37 AM 43.1272 -89.0625 91° East 511 588 35,000  Level Chicago Center
Tue 06:16:38 AM 43.1256 -88.8739 91° East 501 577 35,000  Level Chicago Center
Tue 06:17:38 AM 43.1228 -88.6853 91° East 506 582 35,000  Level Chicago Center
Tue 06:18:39 AM 43.1203 -88.4969 91° East 503 579 35,000  Level Chicago Center
Tue 06:19:39 AM 43.1175 -88.3081 91° East 503 579 35,000  Level Chicago Center
Tue 06:20:40 AM 43.1247 -88.1189 87° East 503 579 35,000  Level Chicago Center
Tue 06:21:40 AM 43.1347 -87.9319 86° East 501 577 35,000  Level Chicago Center
Tue 06:22:41 AM 43.1428 -87.7414 87° East 502 578 35,000  Level Chicago Center
Tue 06:23:41 AM 43.1511 -87.5528 86° East 502 578 35,000  Level Chicago Center
Tue 06:24:42 AM 43.1600 -87.3500 86° East 501 577 35,000  Level Chicago Center
Tue 06:25:42 AM 43.1678 -87.1625 87° East 497 572 35,000  Level Chicago Center
Tue 06:26:43 AM 43.1736 -86.9778 87° East 491 565 35,000  Level Chicago Center
Tue 06:27:43 AM 43.1814 -86.7917 87° East 489 563 35,000  Level Chicago Center
Tue 06:28:44 AM 43.1881 -86.6064 87° East 488 562 35,000  Level Chicago Center
Tue 06:29:44 AM 43.1911 -86.4203 89° East 487 560 35,000  Level Chicago Center
Tue 06:30:45 AM 43.1947 -86.2308 88° East 492 566 35,000  Level Chicago Center
Tue 06:31:45 AM 43.1983 -86.0397 88° East 495 570 35,000  Level Chicago Center
Tue 06:32:46 AM 43.2006 -85.8486 89° East 494 568 35,000  Level Chicago Center
Tue 06:33:47 AM 43.2036 -85.6597 89° East 492 566 35,000  Level Chicago Center
Tue 06:34:47 AM 43.2058 -85.4703 89° East 493 567 35,000  Level Chicago Center
Tue 06:35:48 AM 43.2086 -85.2808 89° East 494 568 35,000  Level Chicago Center
Tue 06:36:48 AM 43.2103 -85.0931 89° East 494 568 35,000  Level Chicago Center
Tue 06:37:49 AM 43.2119 -84.9028 89° East 496 571 35,000  Level Chicago Center
Tue 06:38:49 AM 43.2136 -84.7142 89° East 496 571 35,000  Level Chicago Center
Tue 06:39:50 AM 43.2147 -84.5253 89° East 496 571 35,000  Level Chicago Center
Tue 06:40:50 AM 43.2142 -84.3339 90° East 498 573 35,000  Level Chicago Center
Tue 06:41:51 AM 43.2144 -84.1403 90° East 505 581 35,000 47 Level Chicago Center
Tue 06:42:59 AM 43.2133 -83.9247 90° East 508 585 35,100  Climbing Cleveland Center
Tue 06:44:02 AM 43.2133 -83.7314 90° East 508 585 35,000 -48 Descending Cleveland Center
Tue 06:45:03 AM 43.2122 -83.5383 90° East 507 583 35,000  Level Cleveland Center
Tue 06:46:05 AM 43.2108 -83.3436 90° East 508 585 35,000  Level Cleveland Center
Tue 06:47:05 AM 43.2092 -83.1111 90° East 508 585 35,000  Level Cleveland Center
Tue 06:48:05 AM 43.2064 -82.9178 91° East 508 585 35,000  Level Cleveland Center
Tue 06:49:08 AM 43.2056 -82.7450 90° East 508 585 35,000  Level Cleveland Center
Tue 06:50:12 AM 43.2000 -82.5000 92° East 520 598 35,000  Level Toronto Center
Tue 06:51:12 AM 43.1833 -82.3000 96° East 520 598 35,000 350 Level Toronto Center
Tue 06:52:12 AM 43.1833 -82.1000 90° East 520 598 35,700 1,000 Climbing Toronto Center
Tue 06:53:12 AM 43.1833 -81.9000 90° East 510 587 37,000 650 Climbing Toronto Center
Tue 06:54:12 AM 43.1833 -81.7167 90° East 490 564 37,000  Level Toronto Center
Tue 06:55:12 AM 43.1667 -81.5333 97° East 490 564 37,000  Level Toronto Center
Tue 06:56:12 AM 43.1667 -81.3500 90° East 490 564 37,000  Level Toronto Center
Tue 06:57:12 AM 43.1667 -81.1500 90° East 500 575 37,000  Level Toronto Center
Tue 06:58:12 AM 43.1500 -80.9667 97° East 490 564 37,000  Level Toronto Center
Tue 06:59:12 AM 43.1667 -80.7833 83° East 490 564 37,000  Level Toronto Center
Tue 07:00:12 AM 43.1500 -80.6000 97° East 490 564 37,000  Level Toronto Center
Tue 07:01:12 AM 43.1500 -80.4167 90° East 490 564 37,000  Level Toronto Center
Tue 07:02:12 AM 43.1333 -80.2333 97° East 490 564 37,000  Level Toronto Center
Tue 07:03:12 AM 43.1333 -80.0167 90° East 490 564 37,000  Level Toronto Center
Tue 07:04:12 AM 43.1333 -79.8667 90° East 500 575 37,000  Level Toronto Center
Tue 07:05:12 AM 43.1167 -79.6500 96° East 490 564 37,000  Level Toronto Center
Tue 07:06:12 AM 43.1167 -79.4667 90° East 490 564 37,000  Level Toronto Center
Tue 07:07:12 AM 43.1000 -79.2667 96° East 490 564 37,000  Level Toronto Center
Tue 07:08:12 AM 43.1000 -79.1000 90° East 490 564 37,000  Level Toronto Center
Tue 07:09:12 AM 43.0833 -78.9000 96° East 490 564 37,000  Level Toronto Center
Tue 07:10:12 AM 43.0833 -78.7167 90° East 490 564 37,000  Level Toronto Center
Tue 07:11:12 AM 43.0833 -78.5333 90° East 490 564 37,000  Level Toronto Center
Tue 07:12:12 AM 43.0500 -78.3500 104° East 490 564 37,000  Level Toronto Center
Tue 07:13:12 AM 43.0500 -78.1667 90° East 490 564 37,000  Level Toronto Center
Tue 07:14:12 AM 43.0333 -77.9667 96° East 500 575 37,000  Level Toronto Center
Tue 07:15:12 AM 43.0333 -77.7833 90° East 500 575 37,000  Level Toronto Center
Tue 07:16:12 AM 43.0167 -77.6000 97° East 490 564 37,000  Level Toronto Center
Tue 07:17:12 AM 43.0167 -77.4167 90° East 490 564 37,000  Level Toronto Center
Tue 07:17:43 AM 43.0133 -77.3511 94° East 489 563 37,000  Level Boston Center
Tue 07:18:44 AM 43.0022 -77.1661 95° East 488 562 37,000  Level Boston Center
Tue 07:19:45 AM 42.9908 -76.9833 95° East 487 560 37,000  Level Boston Center
Tue 07:20:20 AM 42.9861 -76.9081 95° East 487 560 37,000  Level Cleveland Center
Tue 07:21:20 AM 42.9728 -76.6886 95° East 487 560 37,000  Level Cleveland Center
Tue 07:22:22 AM 42.9592 -76.4972 95° East 487 560 37,000  Level Cleveland Center
Tue 07:23:24 AM 42.9481 -76.3169 95° East 483 556 37,000  Level Cleveland Center
Tue 07:24:25 AM 42.9350 -76.1347 96° East 483 556 37,000  Level Cleveland Center
Tue 07:25:27 AM 42.9228 -75.9533 95° East 483 556 37,000  Level Cleveland Center
Tue 07:26:29 AM 42.9092 -75.7739 96° East 483 556 37,000  Level Cleveland Center
Tue 07:27:31 AM 42.8953 -75.5964 96° East 478 550 37,000  Level Cleveland Center
Tue 07:28:32 AM 42.8806 -75.3833 95° East 477 549 37,000  Level Cleveland Center
Tue 07:29:34 AM 42.8653 -75.2056 97° East 477 549 37,000  Level Cleveland Center
Tue 07:30:36 AM 42.8519 -75.0275 96° East 477 549 37,000  Level Cleveland Center
Tue 07:31:59 AM 42.8317 -74.7728 96° East 483 556 37,000  Level Boston Center
Tue 07:33:00 AM 42.8178 -74.5931 96° East 482 555 37,000  Level Boston Center
Tue 07:34:01 AM 42.8028 -74.4119 96° East 483 556 37,000  Level Boston Center
Tue 07:35:03 AM 42.7875 -74.2317 97° East 483 556 37,000  Level Boston Center
Tue 07:36:04 AM 42.7683 -74.0272 97° East 483 556 37,000  Level Boston Center
Tue 07:37:05 AM 42.7511 -73.8469 97° East 482 555 37,000 -197 Level Boston Center
Tue 07:38:06 AM 42.7339 -73.6664 97° East 483 556 36,600 -689 Descending Boston Center
Tue 07:39:07 AM 42.7142 -73.4886 99° East 477 549 35,600 -1,820 Descending Boston Center
Tue 07:40:08 AM 42.6947 -73.3067 98° East 481 554 32,900 -2,607 Descending Boston Center
Tue 07:41:09 AM 42.6750 -73.1225 98° East 487 560 30,300 -2,508 Descending Boston Center
Tue 07:42:10 AM 42.6539 -72.9258 98° East 484 557 27,800 -2,361 Descending Boston Center
Tue 07:43:11 AM 42.6331 -72.7522 99° East 474 545 25,500 -1,869 Descending Boston Center
Tue 07:44:12 AM 42.6142 -72.5992 99° East 469 540 24,000 -2,361 Descending Boston Center
Tue 07:45:13 AM 42.5903 -72.4114 100° East 456 525 20,700 -3,000 Descending Boston Center
Tue 07:46:14 AM 42.5686 -72.2350 99° East 461 531 17,900 -2,508 Descending Boston Center
Tue 07:47:15 AM 42.5469 -72.0533 99° East 455 524 15,600 -2,410 Descending Boston Center
Tue 07:48:16 AM 42.5322 -71.8997 97° East 412 474 13,000 -2,016 Descending Boston Center
Tue 07:49:17 AM 42.5194 -71.7533 97° East 393 452 11,500 -984 Descending Boston Center
Tue 07:50:18 AM 42.5056 -71.6133 98° East 380 437 11,000 -541 Descending Boston Center
Tue 07:51:19 AM 42.4919 -71.4686 97° East 366 421 10,400 -738 Descending Boston Center
Tue 07:52:20 AM 42.4803 -71.3486 97° East 324 373 9,500 -1,082 Descending Boston Center
Tue 07:53:21 AM 42.4694 -71.2364 97° East 305 351 8,200 -1,230 Descending Boston Center
Tue 07:54:22 AM 42.4861 -71.1219 79° East 296 341 7,000 -885 Descending Boston Center
Tue 07:55:23 AM 42.5350 -71.0419 50° Northeast 300 345 6,400 -492 Descending Boston Center
Tue 07:56:24 AM 42.6083 -71.0161 15° North 273 314 6,000 -639 Descending Boston Center
Tue 07:57:25 AM 42.6503 -70.9653 42° Northeast 227 261 5,100 -885 Descending Boston Center
Tue 07:58:26 AM 42.6553 -70.8908 85° East 197 227 4,200 -541 Descending Boston Center
Tue 07:59:27 AM 42.6086 -70.8878 177° South 176 203 4,000 -148 Descending Boston Center
Tue 08:00:28 AM 42.5639 -70.9089 199° South 172 198 3,900 -492 Descending Boston Center
Tue 08:01:29 AM 42.5183 -70.9308 200° South 172 198 3,000 -934 Descending Boston Center
Tue 08:02:30 AM 42.4706 -70.9547 200° South 181 208 2,000 -885 Descending Boston Center
Tue 08:03:31 AM 42.4256 -70.9756 199° South 160 184 1,200 -738 Descending Boston Center
Tue 08:04:32 AM 42.3942 -70.9914 200° South 125 144 500 -443 Descending Boston Center
Tue 08:05:33 AM 42.3664 -71.0042 199° South 125 144 300 -197 Descending Boston Center
Tue 08:07:00 AM 42.3630 -71.0064 North  Level Estimated

Login

Don't have an account? Register now (free) for customized features, flight alerts, and more!